Time;durP1;ratioP1;P1;durP2;ratioP2;P2;SDS_P1;SDS_P2;PMS_P1;PMS_P2;Temp;Humidity;BMP_temperature;BMP_pressure;BME280_temperature;BME280_humidity;BME280_pressure;Samples;Min_cycle;Max_cycle;Signal;HPM_P1;HPM_P2
2020/12/05 00:00:11;;;;;;;20.53;17.77;;;7.30;46.30;;;;;;4978836;28;20591;-86
2020/12/05 00:02:37;;;;;;;28.30;20.90;;;7.40;46.60;;;;;;4994981;28;20160;-87
2020/12/05 00:05:03;;;;;;;20.53;15.87;;;7.20;46.30;;;;;;4994743;28;20171;-87
2020/12/05 00:07:28;;;;;;;19.33;16.30;;;7.20;47.50;;;;;;4978209;28;20567;-86
2020/12/05 00:10:29;;;;;;;26.50;19.13;;;6.80;48.50;;;;;;4994158;28;20396;-86
2020/12/05 00:12:55;;;;;;;19.48;15.70;;;6.50;50.00;;;;;;4994186;28;20161;-87
2020/12/05 00:15:20;;;;;;;19.53;16.33;;;6.10;50.80;;;;;;4994224;28;20224;-88
2020/12/05 00:17:48;;;;;;;21.87;17.90;;;5.80;51.60;;;;;;4995116;28;20172;-87
2020/12/05 00:20:14;;;;;;;18.80;16.38;;;5.30;51.80;;;;;;4978398;28;20263;-86
2020/12/05 00:22:46;;;;;;;22.90;17.23;;;5.60;53.90;;;;;;4994204;28;20263;-86
2020/12/05 00:25:11;;;;;;;18.60;14.85;;;5.80;53.20;;;;;;4994194;28;20180;-86
2020/12/05 00:27:37;;;;;;;15.40;13.80;;;5.90;52.20;;;;;;4994139;28;20663;-86
2020/12/05 00:30:04;;;;;;;16.20;14.40;;;6.40;52.70;;;;;;4994258;28;20171;-86
2020/12/05 00:32:29;;;;;;;17.25;14.00;;;5.80;51.60;;;;;;4977875;28;20171;-86
2020/12/05 00:34:55;;;;;;;16.63;14.93;;;6.20;51.30;;;;;;4978101;28;20563;-86
2020/12/05 00:37:32;;;;;;;17.93;16.03;;;6.20;51.20;;;;;;4994287;28;20169;-86
2020/12/05 00:39:58;;;;;;;22.10;18.10;;;6.40;51.00;;;;;;4995111;28;20174;-86
2020/12/05 00:42:25;;;;;;;20.60;18.40;;;5.50;51.90;;;;;;4994090;28;20192;-86
2020/12/05 00:45:03;;;;;;;20.52;17.02;;;5.90;54.50;;;;;;4994253;28;20172;-87
2020/12/05 00:47:29;;;;;;;19.13;16.38;;;5.30;55.40;;;;;;4977583;28;20200;-87
2020/12/05 00:49:55;;;;;;;17.97;14.37;;;5.10;54.70;;;;;;4995047;28;20149;-86
2020/12/05 00:52:23;;;;;;;18.58;15.30;;;5.30;54.90;;;;;;4977515;28;20415;-86
2020/12/05 00:54:48;;;;;;;16.88;15.23;;;5.50;54.20;;;;;;4994057;28;20164;-86
2020/12/05 00:57:38;;;;;;;15.70;14.10;;;6.70;52.90;;;;;;4994541;28;20194;-86
2020/12/05 01:00:06;;;;;;;15.63;14.13;;;6.60;52.60;;;;;;4993660;28;20199;-86
2020/12/05 01:02:51;;;;;;;14.07;12.57;;;7.00;51.70;;;;;;4993955;28;20183;-86
2020/12/05 01:05:17;;;;;;;16.70;14.43;;;7.00;51.50;;;;;;4993735;28;20627;-86
2020/12/05 01:07:42;;;;;;;17.40;13.70;;;7.30;50.80;;;;;;4993843;28;20203;-86
2020/12/05 01:10:37;;;;;;;19.07;16.93;;;7.20;50.20;;;;;;4993635;28;20231;-86
2020/12/05 01:13:04;;;;;;;16.17;14.60;;;7.20;50.70;;;;;;4977444;28;20164;-86
2020/12/05 01:15:30;;;;;;;16.77;14.98;;;7.20;50.00;;;;;;4988584;28;20223;-86
2020/12/05 01:18:01;;;;;;;17.58;15.75;;;7.10;49.70;;;;;;4996969;28;20622;-86
2020/12/05 01:20:27;;;;;;;20.63;16.20;;;7.00;50.10;;;;;;4996768;28;20593;-86
2020/12/05 01:22:54;;;;;;;17.80;13.90;;;7.10;50.80;;;;;;4998310;28;20168;-86
2020/12/05 01:25:38;;;;;;;17.40;15.70;;;6.20;50.20;;;;;;5000800;28;20531;-86
2020/12/05 01:28:04;;;;;;;19.10;15.20;;;6.90;51.00;;;;;;5000489;28;20666;-87
2020/12/05 01:30:29;;;;;;;17.03;15.23;;;6.30;51.40;;;;;;5000782;28;20195;-86
2020/12/05 01:32:56;;;;;;;20.30;16.23;;;7.10;51.60;;;;;;5000498;28;20164;-86
2020/12/05 01:35:22;;;;;;;17.42;15.63;;;6.40;50.90;;;;;;5000530;28;20160;-86
2020/12/05 01:37:47;;;;;;;18.87;16.57;;;6.80;50.90;;;;;;5018245;28;20156;-86
2020/12/05 01:40:13;;;;;;;17.07;15.37;;;7.00;50.60;;;;;;5000422;28;20520;-86
2020/12/05 01:42:39;;;;;;;17.07;14.80;;;7.10;50.60;;;;;;5000384;28;20195;-86
2020/12/05 01:45:05;;;;;;;15.13;13.52;;;6.90;50.60;;;;;;5000261;28;20399;-86
2020/12/05 01:47:37;;;;;;;17.17;15.57;;;6.90;50.30;;;;;;5000290;28;20200;-86
2020/12/05 01:50:03;;;;;;;14.45;12.95;;;7.10;50.20;;;;;;5000283;28;20163;-86
2020/12/05 01:52:28;;;;;;;15.03;13.63;;;6.70;49.60;;;;;;5000403;28;20163;-85
2020/12/05 01:54:59;;;;;;;14.87;13.40;;;7.10;49.30;;;;;;5000113;28;20478;-86
2020/12/05 01:57:25;;;;;;;15.15;13.65;;;7.10;49.50;;;;;;5000072;28;20172;-86
2020/12/05 01:59:52;;;;;;;17.05;15.25;;;7.10;49.50;;;;;;4999996;28;20174;-86
2020/12/05 02:02:18;;;;;;;16.83;14.63;;;6.60;48.40;;;;;;5000398;28;20171;-86
2020/12/05 02:05:03;;;;;;;16.43;14.83;;;7.10;48.60;;;;;;5000161;28;20175;-87
2020/12/05 02:07:39;;;;;;;16.13;14.40;;;6.80;48.80;;;;;;5000106;28;20196;-86
2020/12/05 02:10:09;;;;;;;16.67;15.02;;;7.10;49.10;;;;;;5000013;28;20167;-86
2020/12/05 02:12:38;;;;;;;15.13;13.63;;;7.20;48.60;;;;;;4999979;28;20178;-86
2020/12/05 02:15:11;;;;;;;16.83;13.85;;;6.70;49.60;;;;;;5009019;28;20224;-85
2020/12/05 02:17:46;;;;;;;14.48;12.98;;;6.40;49.80;;;;;;4957361;29;20257;-86
2020/12/05 02:20:12;;;;;;;13.68;12.18;;;6.70;49.90;;;;;;4996486;28;20190;-86
2020/12/05 02:23:01;;;;;;;14.70;13.10;;;6.80;50.10;;;;;;4997497;28;20161;-86
2020/12/05 02:25:27;;;;;;;12.38;10.98;;;6.60;50.30;;;;;;4996287;28;20202;-86
2020/12/05 02:28:13;;;;;;;13.90;12.50;;;6.60;50.50;;;;;;4996168;28;20550;-86
2020/12/05 02:30:39;;;;;;;15.63;13.98;;;6.70;50.80;;;;;;4996080;28;20164;-87
2020/12/05 02:33:05;;;;;;;14.57;11.05;;;6.60;51.10;;;;;;4995701;28;20160;-86
2020/12/05 02:35:58;;;;;;;13.70;11.40;;;6.20;51.40;;;;;;4996073;28;20263;-86
2020/12/05 02:38:39;;;;;;;16.40;14.38;;;6.30;52.10;;;;;;4996058;28;20408;-86
2020/12/05 02:41:05;;;;;;;14.82;11.85;;;6.40;51.30;;;;;;4995978;28;20168;-90
2020/12/05 02:43:34;;;;;;;12.97;10.83;;;6.50;51.50;;;;;;4997232;28;20219;-91
2020/12/05 02:46:00;;;;;;;11.18;9.93;;;6.20;50.70;;;;;;4997117;28;20414;-91
2020/12/05 02:48:26;;;;;;;9.70;8.80;;;6.60;50.40;;;;;;4996942;28;20160;-91
2020/12/05 02:50:52;;;;;;;13.83;12.43;;;6.70;50.80;;;;;;4997078;28;20214;-91
2020/12/05 02:53:59;;;;;;;15.03;12.30;;;6.80;50.30;;;;;;4996659;28;20187;-90
2020/12/05 02:56:24;;;;;;;14.52;13.13;;;6.60;51.60;;;;;;4996367;28;20211;-90
2020/12/05 02:59:00;;;;;;;12.90;11.70;;;6.50;51.80;;;;;;4996252;28;20534;-90
2020/12/05 03:01:26;;;;;;;12.85;11.60;;;6.10;52.50;;;;;;4996315;28;20190;-90
2020/12/05 03:03:51;;;;;;;13.03;11.73;;;5.50;53.30;;;;;;4996232;28;20212;-90
2020/12/05 03:06:47;;;;;;;13.57;12.17;;;5.20;53.50;;;;;;4995718;28;20278;-90
2020/12/05 03:09:14;;;;;;;13.20;12.00;;;5.70;55.20;;;;;;4996005;28;20161;-90
2020/12/05 03:11:39;;;;;;;14.52;13.20;;;5.70;55.40;;;;;;4995508;28;20168;-87
2020/12/05 03:16:36;;;;;;;14.45;13.05;;;5.20;57.10;;;;;;5014433;28;20478;-90
2020/12/05 03:21:30;;;;;;;13.10;11.90;;;5.20;57.60;;;;;;4995000;28;20258;-86
2020/12/05 03:23:55;;;;;;;11.57;10.37;;;4.90;56.10;;;;;;4979113;28;20161;-91
2020/12/05 03:26:43;;;;;;;12.93;11.73;;;5.70;55.20;;;;;;4978674;28;20675;-90
2020/12/05 03:29:09;;;;;;;11.52;10.48;;;6.00;54.90;;;;;;4979662;28;20160;-86
2020/12/05 03:31:46;;;;;;;12.10;10.43;;;5.70;53.10;;;;;;4978886;28;20642;-85
2020/12/05 03:34:24;;;;;;;12.18;10.95;;;6.40;52.60;;;;;;4995337;28;20180;-86
2020/12/05 03:37:09;;;;;;;12.70;11.50;;;6.20;52.40;;;;;;4979141;28;20164;-86
2020/12/05 03:39:35;;;;;;;11.82;10.65;;;6.60;51.90;;;;;;4978629;28;20172;-86
2020/12/05 03:42:07;;;;;;;12.17;10.70;;;6.60;52.00;;;;;;4978605;28;20284;-85
2020/12/05 03:44:32;;;;;;;12.27;11.18;;;6.30;51.20;;;;;;4978137;28;20495;-84
2020/12/05 03:47:18;;;;;;;11.83;10.63;;;6.30;51.40;;;;;;4978053;28;20409;-85
2020/12/05 03:49:44;;;;;;;12.18;10.93;;;6.60;51.90;;;;;;4978350;28;20160;-85
2020/12/05 03:52:09;;;;;;;15.00;12.10;;;6.80;51.30;;;;;;4995782;28;20226;-85
2020/12/05 03:54:42;;;;;;;13.17;11.80;;;6.30;51.00;;;;;;4978398;28;20678;-85
2020/12/05 03:57:08;;;;;;;12.85;11.63;;;6.60;51.40;;;;;;4978488;28;20160;-87
2020/12/05 03:59:33;;;;;;;11.97;10.83;;;6.40;51.40;;;;;;4995793;28;20165;-84
2020/12/05 04:02:42;;;;;;;12.43;11.13;;;6.70;51.60;;;;;;4978302;28;20180;-85
2020/12/05 04:05:07;;;;;;;11.07;10.07;;;6.70;51.80;;;;;;4978343;28;20227;-85
2020/12/05 04:07:34;;;;;;;11.60;10.40;;;6.80;51.90;;;;;;4978078;28;20192;-85
2020/12/05 04:10:00;;;;;;;11.02;9.15;;;6.80;51.00;;;;;;4995450;28;20553;-85
2020/12/05 04:12:25;;;;;;;11.87;10.67;;;6.40;50.70;;;;;;4978102;28;20272;-85
2020/12/05 04:15:05;;;;;;;10.80;9.80;;;6.70;50.90;;;;;;4978104;28;20255;-85
2020/12/05 04:17:30;;;;;;;10.70;9.60;;;6.60;50.60;;;;;;4977957;28;20227;-85
2020/12/05 04:19:56;;;;;;;11.20;10.10;;;6.40;50.40;;;;;;4977371;28;20228;-85
2020/12/05 04:22:28;;;;;;;13.07;11.70;;;6.80;50.70;;;;;;4994284;28;20176;-85
2020/12/05 04:24:53;;;;;;;13.10;11.82;;;6.80;50.90;;;;;;4978076;28;20542;-85
2020/12/05 04:27:19;;;;;;;11.97;10.87;;;6.60;50.80;;;;;;4977797;28;20218;-85
2020/12/05 04:29:51;;;;;;;11.50;10.30;;;6.70;50.90;;;;;;4977908;28;20183;-85
2020/12/05 04:32:17;;;;;;;11.60;10.40;;;7.00;51.10;;;;;;4977719;28;20223;-85
2020/12/05 04:34:49;;;;;;;13.63;11.33;;;6.00;51.10;;;;;;4977735;28;20164;-85
2020/12/05 04:37:15;;;;;;;11.98;10.88;;;6.60;51.10;;;;;;4977602;28;20411;-86
2020/12/05 04:39:40;;;;;;;9.27;8.47;;;6.20;50.90;;;;;;4977720;28;20231;-86
2020/12/05 04:42:08;;;;;;;11.83;10.77;;;6.60;51.00;;;;;;4978006;28;20196;-85
2020/12/05 04:44:34;;;;;;;10.55;9.48;;;6.70;51.00;;;;;;4977727;28;20535;-85
2020/12/05 04:47:16;;;;;;;12.40;11.15;;;6.70;51.10;;;;;;4977563;28;20250;-85
2020/12/05 04:49:42;;;;;;;11.35;10.10;;;6.60;51.10;;;;;;4977659;28;20638;-85
2020/12/05 04:52:36;;;;;;;11.05;9.85;;;6.40;52.10;;;;;;4977675;28;20559;-85
2020/12/05 04:55:03;;;;;;;14.82;13.23;;;6.50;52.00;;;;;;4977605;28;20619;-85
2020/12/05 04:58:16;;;;;;;13.90;12.13;;;6.10;52.40;;;;;;4980183;28;20230;-85
2020/12/05 05:00:43;;;;;;;13.20;11.05;;;6.40;53.10;;;;;;4981320;28;20176;-86
2020/12/05 05:03:13;;;;;;;15.85;14.30;;;6.10;52.60;;;;;;4981618;28;20649;-86
2020/12/05 05:05:39;;;;;;;16.77;14.75;;;6.30;53.30;;;;;;4981339;28;20176;-86
2020/12/05 05:08:26;;;;;;;13.03;11.83;;;6.10;53.90;;;;;;4981378;28;20299;-86
2020/12/05 05:11:20;;;;;;;15.30;13.75;;;5.90;54.10;;;;;;4981288;28;20172;-87
2020/12/05 05:13:59;;;;;;;14.35;12.95;;;5.80;54.10;;;;;;4979568;28;20180;-85
2020/12/05 05:16:33;;;;;;;11.48;10.27;;;5.90;54.50;;;;;;4981269;28;20207;-86
2020/12/05 05:19:19;;;;;;;13.57;12.18;;;6.20;53.60;;;;;;4981208;28;20222;-85
2020/12/05 05:21:47;;;;;;;13.13;11.80;;;5.90;52.70;;;;;;4981122;28;20314;-85
2020/12/05 05:24:15;;;;;;;11.07;10.05;;;5.60;52.00;;;;;;4981122;28;20173;-86
2020/12/05 05:26:42;;;;;;;11.75;10.65;;;6.40;52.60;;;;;;4980986;28;20196;-85
2020/12/05 05:29:45;;;;;;;11.80;10.82;;;6.10;52.60;;;;;;4981169;28;20164;-85
2020/12/05 05:32:49;;;;;;;10.95;9.85;;;6.30;53.20;;;;;;4981034;28;20164;-85
2020/12/05 05:35:15;;;;;;;11.95;10.65;;;6.60;52.40;;;;;;4980882;28;20642;-85
2020/12/05 05:37:47;;;;;;;10.18;9.32;;;6.60;52.00;;;;;;4998462;28;20522;-85
2020/12/05 05:40:14;;;;;;;12.07;9.90;;;6.00;51.80;;;;;;4980932;28;20652;-86
2020/12/05 05:42:41;;;;;;;10.73;9.70;;;5.80;52.00;;;;;;4980758;28;20620;-87
2020/12/05 05:45:23;;;;;;;11.40;10.20;;;6.50;52.10;;;;;;4980708;28;20168;-87
2020/12/05 05:48:19;;;;;;;11.35;10.25;;;6.30;52.30;;;;;;4980678;28;20196;-87
2020/12/05 05:50:45;;;;;;;11.93;10.55;;;6.50;52.20;;;;;;4980636;28;20165;-87
2020/12/05 05:53:25;;;;;;;10.13;9.10;;;6.30;51.50;;;;;;4980609;28;20166;-86
2020/12/05 05:55:50;;;;;;;13.63;12.20;;;6.00;51.00;;;;;;4980603;28;20537;-87
2020/12/05 05:58:21;;;;;;;11.13;10.03;;;6.30;51.20;;;;;;4980625;28;20165;-87
2020/12/05 06:01:16;;;;;;;11.18;10.07;;;6.60;51.20;;;;;;4980116;28;20615;-87
2020/12/05 06:06:52;;;;;;;10.65;9.50;;;6.60;50.60;;;;;;4992944;28;20254;-84
2020/12/05 06:09:54;;;;;;;11.85;10.65;;;6.70;50.90;;;;;;4996938;28;20227;-85
2020/12/05 06:12:29;;;;;;;12.18;11.00;;;6.40;51.40;;;;;;4949876;28;20176;-85
2020/12/05 06:14:55;;;;;;;11.65;10.48;;;6.60;51.50;;;;;;4980056;28;20652;-85
2020/12/05 06:17:24;;;;;;;11.98;10.52;;;6.40;50.60;;;;;;4980113;28;20585;-85
2020/12/05 06:19:52;;;;;;;11.70;9.88;;;6.50;51.30;;;;;;4997058;28;20240;-85
2020/12/05 06:23:08;;;;;;;12.27;11.10;;;6.50;51.60;;;;;;4980142;28;20619;-87
2020/12/05 06:25:34;;;;;;;10.57;9.23;;;6.50;51.70;;;;;;4980096;28;20214;-87
2020/12/05 06:28:20;;;;;;;11.93;10.43;;;6.40;51.00;;;;;;4979849;28;20204;-85
2020/12/05 06:30:47;;;;;;;11.80;10.80;;;6.50;51.20;;;;;;4979880;28;20348;-88
2020/12/05 06:34:03;;;;;;;11.38;10.25;;;6.40;51.00;;;;;;4979818;28;20234;-85
2020/12/05 06:36:29;;;;;;;11.55;10.50;;;6.30;51.60;;;;;;4979659;28;20168;-87
2020/12/05 06:39:50;;;;;;;11.73;10.53;;;6.00;50.80;;;;;;4980144;28;20581;-86
2020/12/05 06:42:19;;;;;;;11.45;10.45;;;6.30;51.80;;;;;;4979749;28;20168;-86
2020/12/05 06:45:34;;;;;;;12.60;11.18;;;6.60;51.40;;;;;;4979830;28;20177;-86
2020/12/05 06:48:09;;;;;;;12.63;10.90;;;6.10;51.50;;;;;;4979243;28;20235;-85
2020/12/05 06:50:43;;;;;;;11.23;10.13;;;6.00;50.80;;;;;;4996955;28;20160;-84
2020/12/05 06:53:21;;;;;;;13.23;11.93;;;5.70;51.40;;;;;;4979489;28;20557;-85
2020/12/05 06:55:50;;;;;;;11.20;10.20;;;6.10;51.60;;;;;;4981053;28;20931;-84
2020/12/05 06:58:31;;;;;;;12.25;11.10;;;6.00;51.90;;;;;;4979265;28;20164;-84
2020/12/05 07:00:58;;;;;;;12.60;11.40;;;5.90;51.30;;;;;;4979122;28;20175;-85
2020/12/05 07:03:31;;;;;;;11.57;10.48;;;6.20;51.40;;;;;;4979053;28;20256;-85
2020/12/05 07:05:58;;;;;;;13.27;11.98;;;6.40;52.00;;;;;;4979144;28;20160;-84
2020/12/05 07:08:37;;;;;;;13.68;11.93;;;5.60;50.70;;;;;;4979192;28;20215;-85
2020/12/05 07:11:04;;;;;;;10.63;9.68;;;6.20;51.30;;;;;;4978887;28;20210;-85
2020/12/05 07:13:45;;;;;;;10.88;9.88;;;6.20;52.10;;;;;;4979029;28;20156;-84
2020/12/05 07:16:38;;;;;;;9.98;9.07;;;6.10;52.40;;;;;;4996316;28;20215;-85
2020/12/05 07:19:03;;;;;;;19.88;16.65;;;6.50;52.70;;;;;;4978984;28;20183;-86
2020/12/05 07:21:30;;;;;;;18.50;16.70;;;5.60;52.10;;;;;;4980100;28;20224;-85
2020/12/05 07:24:04;;;;;;;13.68;12.43;;;6.40;52.90;;;;;;4978659;28;20646;-86
2020/12/05 07:26:30;;;;;;;14.63;13.13;;;6.00;53.10;;;;;;4978692;28;20689;-85
2020/12/05 07:29:08;;;;;;;16.95;14.63;;;5.90;52.60;;;;;;4996134;28;20199;-84
2020/12/05 07:31:34;;;;;;;14.98;13.45;;;6.00;52.30;;;;;;4978943;28;20168;-84
2020/12/05 07:34:19;;;;;;;14.83;13.37;;;6.10;52.40;;;;;;4996192;28;20240;-85
2020/12/05 07:36:45;;;;;;;18.38;15.57;;;5.60;52.60;;;;;;4996012;28;20442;-86
2020/12/05 07:39:24;;;;;;;18.07;16.20;;;5.50;51.70;;;;;;4978805;28;20164;-86
2020/12/05 07:41:51;;;;;;;16.67;15.20;;;5.80;52.20;;;;;;4978585;28;20168;-85
2020/12/05 07:44:36;;;;;;;13.73;11.95;;;6.40;52.60;;;;;;4978492;28;20583;-88
2020/12/05 07:47:01;;;;;;;17.17;15.38;;;5.60;52.20;;;;;;4978482;28;20196;-89
2020/12/05 07:49:50;;;;;;;17.07;15.30;;;6.50;52.20;;;;;;4978797;28;20248;-83
2020/12/05 07:52:21;;;;;;;16.05;14.50;;;6.20;52.40;;;;;;4978142;28;20168;-85
2020/12/05 07:54:59;;;;;;;17.40;15.07;;;6.30;52.50;;;;;;4995208;28;20157;-90
2020/12/05 07:57:29;;;;;;;13.05;11.85;;;6.10;51.60;;;;;;4975226;28;20204;-82
2020/12/05 08:00:08;;;;;;;14.55;13.05;;;6.40;52.20;;;;;;4969391;28;20183;-82
2020/12/05 08:02:34;;;;;;;14.15;12.68;;;6.30;52.00;;;;;;4975585;28;20164;-82
2020/12/05 08:05:07;;;;;;;10.87;9.77;;;5.90;51.00;;;;;;4963219;28;20232;-82
2020/12/05 08:08:00;;;;;;;10.27;9.32;;;6.40;51.80;;;;;;4958581;28;20655;-82
2020/12/05 08:10:30;;;;;;;14.77;11.55;;;6.60;52.10;;;;;;4975545;28;20519;-82
2020/12/05 08:13:27;;;;;;;11.13;9.98;;;6.80;51.60;;;;;;4942620;28;20215;-82
2020/12/05 08:16:07;;;;;;;12.93;11.60;;;6.30;52.00;;;;;;4958028;28;20179;-83
2020/12/05 08:18:40;;;;;;;12.15;10.95;;;6.50;51.80;;;;;;4958055;28;20177;-82
2020/12/05 08:21:10;;;;;;;14.48;12.93;;;6.30;51.90;;;;;;4961321;28;20520;-82
2020/12/05 08:23:37;;;;;;;12.40;10.90;;;5.90;51.70;;;;;;4958031;28;20169;-82
2020/12/05 08:26:18;;;;;;;13.38;11.98;;;6.10;51.90;;;;;;4958045;28;20572;-82
2020/12/05 08:28:46;;;;;;;10.82;9.70;;;6.40;52.90;;;;;;4957948;28;20169;-82
2020/12/05 08:31:14;;;;;;;11.65;10.60;;;6.50;52.40;;;;;;4957513;28;20559;-83
2020/12/05 08:33:51;;;;;;;13.10;10.73;;;6.10;51.80;;;;;;4958577;28;20225;-87
2020/12/05 08:36:26;;;;;;;11.80;10.55;;;6.70;51.90;;;;;;4959085;28;20552;-87
2020/12/05 08:38:55;;;;;;;10.93;9.93;;;6.60;51.70;;;;;;4958590;28;20544;-86
2020/12/05 08:41:27;;;;;;;13.13;11.82;;;6.00;51.00;;;;;;4957601;28;20200;-86
2020/12/05 08:43:53;;;;;;;12.32;10.13;;;6.50;51.30;;;;;;4957743;28;20165;-87
2020/12/05 08:46:22;;;;;;;14.37;10.53;;;6.90;51.80;;;;;;4979365;28;20204;-88
2020/12/05 08:48:51;;;;;;;11.75;9.63;;;6.80;51.70;;;;;;4958798;28;20168;-87
2020/12/05 08:51:49;;;;;;;15.45;10.82;;;6.40;51.20;;;;;;4959512;28;20192;-89
2020/12/05 08:54:15;;;;;;;11.55;10.38;;;6.90;52.00;;;;;;4958178;28;20167;-88
2020/12/05 08:57:08;;;;;;;11.57;10.37;;;7.00;52.00;;;;;;4960386;28;20421;-89
2020/12/05 08:59:34;;;;;;;12.43;11.40;;;7.00;51.40;;;;;;4960358;28;20439;-89
2020/12/05 09:02:18;;;;;;;12.03;10.87;;;7.10;51.20;;;;;;4977766;28;20860;-89
2020/12/05 09:04:44;;;;;;;10.18;9.30;;;7.20;51.30;;;;;;4960511;28;20412;-89
2020/12/05 09:07:38;;;;;;;12.10;10.57;;;7.10;50.80;;;;;;4960200;28;20280;-88
2020/12/05 09:10:16;;;;;;;15.60;13.98;;;7.00;51.00;;;;;;4960119;28;20627;-89
2020/12/05 09:16:13;;;;;;;13.13;10.30;;;6.70;51.20;;;;;;4978014;28;20215;-89
2020/12/05 09:18:51;;;;;;;12.40;10.60;;;6.50;51.30;;;;;;4975597;28;20172;-89
2020/12/05 09:21:19;;;;;;;10.98;9.57;;;6.80;51.40;;;;;;4975529;28;20226;-90
2020/12/05 09:24:00;;;;;;;16.25;9.27;;;6.90;52.00;;;;;;4980799;28;20176;-90
2020/12/05 09:26:26;;;;;;;11.30;10.30;;;7.20;52.00;;;;;;4960267;28;20200;-88
2020/12/05 09:28:54;;;;;;;12.77;11.57;;;7.30;51.20;;;;;;4960138;28;20220;-89
2020/12/05 09:31:20;;;;;;;12.45;11.32;;;7.20;50.70;;;;;;4960334;28;20193;-89
2020/12/05 09:33:46;;;;;;;15.57;14.20;;;7.40;51.00;;;;;;4960116;28;20173;-89
2020/12/05 09:36:12;;;;;;;11.93;10.70;;;7.50;51.00;;;;;;4977804;28;20883;-89
2020/12/05 09:38:39;;;;;;;11.20;10.10;;;7.30;51.10;;;;;;4959698;28;20189;-89
2020/12/05 09:41:05;;;;;;;12.65;11.55;;;7.40;50.80;;;;;;4959326;28;20468;-90
2020/12/05 09:43:48;;;;;;;13.23;11.87;;;7.50;51.00;;;;;;4961003;28;20570;-90
2020/12/05 09:46:13;;;;;;;14.32;13.02;;;7.50;50.60;;;;;;4981744;28;20424;-91
2020/12/05 09:48:57;;;;;;;12.50;11.33;;;7.70;50.40;;;;;;4965337;28;20157;-89
2020/12/05 09:51:23;;;;;;;12.43;11.23;;;7.40;49.60;;;;;;4980574;28;20158;-89
2020/12/05 09:54:07;;;;;;;14.50;13.10;;;8.10;49.70;;;;;;4963145;28;20234;-89
2020/12/05 09:56:33;;;;;;;11.25;9.75;;;8.10;49.00;;;;;;4963175;28;20188;-89
2020/12/05 09:59:06;;;;;;;13.20;11.43;;;7.90;48.60;;;;;;4962776;28;20169;-90
2020/12/05 10:01:33;;;;;;;12.48;9.57;;;8.00;48.90;;;;;;4981955;28;20164;-89
2020/12/05 10:04:00;;;;;;;11.33;9.30;;;8.00;48.70;;;;;;4963530;28;20639;-90
2020/12/05 10:06:27;;;;;;;8.30;7.68;;;8.00;48.80;;;;;;4961966;28;21041;-90
2020/12/05 10:08:56;;;;;;;8.98;8.18;;;8.10;49.10;;;;;;4961878;28;20478;-90
2020/12/05 10:11:22;;;;;;;7.97;7.28;;;8.00;48.80;;;;;;4962846;28;20161;-88
2020/12/05 10:13:48;;;;;;;7.88;7.18;;;8.00;48.70;;;;;;4961672;28;20168;-88
2020/12/05 10:16:14;;;;;;;6.80;6.20;;;8.50;48.90;;;;;;4961719;28;20523;-86
2020/12/05 10:18:52;;;;;;;8.20;7.60;;;8.30;48.20;;;;;;4961603;28;20172;-87
2020/12/05 10:21:21;;;;;;;6.80;6.20;;;8.20;48.00;;;;;;4979103;28;20977;-86
2020/12/05 10:23:47;;;;;;;7.00;6.30;;;8.20;47.80;;;;;;4961720;28;20169;-88
2020/12/05 10:26:14;;;;;;;7.53;6.70;;;8.10;47.20;;;;;;4970932;28;20184;-88
2020/12/05 10:28:40;;;;;;;6.80;6.10;;;8.20;47.80;;;;;;4964867;28;20169;-88
2020/12/05 10:31:06;;;;;;;7.97;7.17;;;8.00;47.90;;;;;;4975261;28;20609;-89
2020/12/05 10:33:32;;;;;;;6.65;6.05;;;8.00;47.90;;;;;;4976878;28;20490;-87
2020/12/05 10:36:10;;;;;;;12.77;9.95;;;8.10;47.70;;;;;;4972907;28;20096;-94
2020/12/05 10:38:36;;;;;;;14.95;12.13;;;7.80;47.00;;;;;;4978869;28;20183;-84
2020/12/05 10:41:17;;;;;;;13.33;10.97;;;8.10;48.00;;;;;;4980575;28;20161;-88
2020/12/05 10:43:43;;;;;;;12.38;10.15;;;8.20;48.40;;;;;;4980639;28;20410;-89
2020/12/05 10:46:28;;;;;;;11.20;10.15;;;8.10;48.30;;;;;;4983338;28;20167;-92
2020/12/05 10:48:59;;;;;;;11.95;10.27;;;8.50;48.40;;;;;;4982597;28;20169;-90
2020/12/05 10:51:33;;;;;;;12.15;9.50;;;8.20;48.40;;;;;;4973658;28;20221;-89
2020/12/05 10:53:59;;;;;;;12.23;10.52;;;8.10;48.40;;;;;;4986642;28;20640;-89
2020/12/05 10:56:26;;;;;;;12.75;11.45;;;8.10;48.50;;;;;;5000031;28;20160;-89
2020/12/05 10:58:52;;;;;;;8.85;8.02;;;7.90;48.70;;;;;;4984124;28;20165;-89
2020/12/05 11:01:20;;;;;;;10.45;9.40;;;8.10;49.20;;;;;;4981146;28;20231;-88
2020/12/05 11:03:46;;;;;;;8.82;8.02;;;7.90;49.00;;;;;;4980610;28;20187;-90
2020/12/05 11:06:18;;;;;;;9.80;8.90;;;7.80;49.10;;;;;;4978526;28;20420;-89
2020/12/05 11:08:44;;;;;;;11.68;8.68;;;8.10;49.30;;;;;;4980012;28;20160;-89
2020/12/05 11:11:12;;;;;;;9.90;9.03;;;8.20;49.20;;;;;;4979771;28;20635;-88
2020/12/05 11:13:39;;;;;;;10.18;9.10;;;8.20;49.40;;;;;;4996784;28;20879;-87
2020/12/05 11:16:05;;;;;;;11.83;9.70;;;8.10;49.20;;;;;;4979680;28;20171;-88
2020/12/05 11:18:31;;;;;;;11.25;9.32;;;8.00;49.40;;;;;;4979950;28;20404;-88
2020/12/05 11:20:57;;;;;;;9.70;8.70;;;8.30;50.40;;;;;;4980554;28;20243;-88
2020/12/05 11:23:46;;;;;;;9.75;8.73;;;7.80;49.60;;;;;;4980666;28;20169;-93
2020/12/05 11:26:19;;;;;;;9.90;8.85;;;7.80;49.20;;;;;;4980757;28;20169;-89
2020/12/05 11:28:47;;;;;;;9.80;8.73;;;7.70;49.80;;;;;;4979578;28;20615;-88
2020/12/05 11:31:21;;;;;;;10.93;9.83;;;8.00;50.00;;;;;;4978910;28;20417;-88
2020/12/05 11:33:47;;;;;;;10.35;8.82;;;8.30;50.10;;;;;;4981692;28;20454;-88
2020/12/05 11:36:23;;;;;;;8.73;7.93;;;8.20;50.00;;;;;;4981316;28;20227;-89
2020/12/05 11:38:49;;;;;;;9.07;7.72;;;8.20;49.50;;;;;;4979741;28;20412;-87
2020/12/05 11:41:29;;;;;;;9.88;7.95;;;8.10;49.60;;;;;;4977905;28;20204;-90
2020/12/05 11:43:55;;;;;;;11.25;9.55;;;8.20;49.80;;;;;;4960750;28;20579;-90
2020/12/05 11:46:50;;;;;;;14.40;13.10;;;8.10;49.50;;;;;;4967330;28;20181;-89
2020/12/05 11:49:17;;;;;;;14.73;13.20;;;8.40;49.40;;;;;;4959737;28;20477;-88
2020/12/05 11:51:45;;;;;;;15.30;13.70;;;8.30;49.00;;;;;;4959811;28;20408;-90
2020/12/05 11:54:12;;;;;;;13.27;11.88;;;8.50;49.00;;;;;;4960865;28;20640;-92
2020/12/05 11:56:44;;;;;;;14.43;12.95;;;8.50;49.40;;;;;;4960141;28;20183;-90
2020/12/05 11:59:10;;;;;;;12.18;11.07;;;8.10;49.00;;;;;;4962028;28;20267;-90
2020/12/05 12:01:42;;;;;;;11.30;10.23;;;8.60;49.30;;;;;;4966483;28;20909;-90
2020/12/05 12:04:09;;;;;;;10.82;9.73;;;8.60;49.10;;;;;;4979271;28;20434;-93
2020/12/05 12:06:35;;;;;;;10.00;9.10;;;8.60;49.30;;;;;;4978648;28;20204;-90
2020/12/05 12:09:09;;;;;;;9.90;9.00;;;8.50;49.10;;;;;;4971295;28;20224;-90
2020/12/05 12:11:35;;;;;;;12.55;11.25;;;8.50;49.20;;;;;;4973239;28;20427;-90
2020/12/05 12:14:02;;;;;;;17.40;13.90;;;8.40;49.10;;;;;;4959806;28;20189;-91
2020/12/05 12:16:28;;;;;;;12.10;10.85;;;8.30;49.00;;;;;;4967526;28;20930;-91
2020/12/05 12:18:54;;;;;;;10.40;9.30;;;8.40;49.20;;;;;;4959555;28;20165;-89
2020/12/05 12:21:24;;;;;;;10.10;9.15;;;8.60;49.50;;;;;;4959107;28;20504;-89
2020/12/05 12:23:53;;;;;;;10.13;9.13;;;8.00;49.10;;;;;;4959600;28;20180;-89
2020/12/05 12:26:19;;;;;;;10.75;9.68;;;8.30;49.70;;;;;;4959308;28;20177;-90
2020/12/05 12:29:05;;;;;;;11.50;10.50;;;7.90;49.30;;;;;;4976412;28;20176;-89
2020/12/05 12:31:31;;;;;;;10.10;9.10;;;8.00;50.40;;;;;;4978810;28;20678;-89
2020/12/05 12:33:58;;;;;;;10.07;9.03;;;8.00;50.80;;;;;;4979252;28;20165;-89
2020/12/05 12:36:24;;;;;;;8.82;7.93;;;8.40;50.90;;;;;;4978783;28;20435;-89
2020/12/05 12:38:50;;;;;;;9.52;8.70;;;8.50;50.10;;;;;;4979025;28;20169;-89
2020/12/05 12:41:18;;;;;;;9.90;8.90;;;8.20;50.00;;;;;;4979364;28;20420;-89
2020/12/05 12:44:06;;;;;;;9.68;8.70;;;8.40;49.70;;;;;;4979424;28;20187;-89
2020/12/05 12:46:33;;;;;;;15.77;12.55;;;8.30;49.70;;;;;;4978930;28;20196;-89
2020/12/05 12:49:15;;;;;;;11.45;10.35;;;8.40;49.20;;;;;;4979084;28;20247;-87
2020/12/05 12:51:41;;;;;;;12.48;11.32;;;8.50;50.00;;;;;;4978674;28;20233;-89
2020/12/05 12:54:26;;;;;;;12.80;9.73;;;8.40;49.80;;;;;;4978852;28;20247;-90
2020/12/05 12:56:52;;;;;;;10.02;9.02;;;8.30;49.60;;;;;;4978184;28;20502;-89
2020/12/05 12:59:27;;;;;;;10.53;9.13;;;8.40;49.20;;;;;;4978449;28;20311;-88
2020/12/05 13:01:57;;;;;;;8.88;8.05;;;8.90;49.10;;;;;;4978065;28;20431;-90
2020/12/05 13:04:25;;;;;;;10.02;9.07;;;8.70;49.10;;;;;;4996365;28;20164;-90
2020/12/05 13:06:56;;;;;;;8.55;7.75;;;8.90;48.80;;;;;;4997742;28;20238;-90
2020/12/05 13:09:32;;;;;;;9.00;7.68;;;9.00;48.50;;;;;;4991106;28;20198;-91
2020/12/05 13:11:58;;;;;;;10.90;9.40;;;9.20;48.70;;;;;;4978441;28;20255;-90
2020/12/05 13:14:26;;;;;;;11.20;10.00;;;9.30;48.50;;;;;;4978773;28;20196;-90
2020/12/05 13:16:53;;;;;;;12.00;10.77;;;9.30;48.60;;;;;;4978710;28;20169;-89
2020/12/05 13:19:21;;;;;;;11.65;10.65;;;9.00;48.20;;;;;;4980649;28;20174;-89